createdAt,value
2022-08-25T00:00:21.481Z,68.17
2022-08-25T00:03:08.510Z,67.12
2022-08-25T00:05:36.550Z,68.22
2022-08-25T00:08:06.593Z,67.41
2022-08-25T00:10:36.391Z,68.14
2022-08-25T00:13:05.169Z,67.26
2022-08-25T00:15:34.107Z,67.51
2022-08-25T00:18:02.327Z,68.04
2022-08-25T00:20:33.036Z,67.61
2022-08-25T00:23:01.610Z,67.58
2022-08-25T00:25:29.779Z,67.68
2022-08-25T00:27:59.065Z,67.51
2022-08-25T00:30:26.978Z,67.62
2022-08-25T00:32:57.181Z,67.89
2022-08-25T00:35:26.277Z,68.09
2022-08-25T00:37:55.007Z,67.76
2022-08-25T00:40:24.379Z,67.73
2022-08-25T00:42:54.515Z,67.78
2022-08-25T00:45:23.251Z,67.92
2022-08-25T00:47:51.054Z,68.17
2022-08-25T00:50:19.875Z,67.99
2022-08-25T00:52:53.985Z,67.99
2022-08-25T00:55:25.364Z,68.10
2022-08-25T00:57:57.104Z,68.22
2022-08-25T01:00:33.029Z,68.66
2022-08-25T01:03:00.832Z,68.59
2022-08-25T01:05:29.466Z,68.75
2022-08-25T01:07:58.763Z,68.40
2022-08-25T01:10:27.829Z,69.02
2022-08-25T01:13:16.364Z,69.41
2022-08-25T01:15:46.619Z,68.69
2022-08-25T01:18:15.397Z,69.64
2022-08-25T01:20:43.636Z,69.61
2022-08-25T01:23:11.351Z,69.62
2022-08-25T01:25:53.615Z,69.40
2022-08-25T01:28:21.515Z,69.01
2022-08-25T01:30:50.146Z,68.83
2022-08-25T01:33:19.080Z,69.28
2022-08-25T01:35:47.237Z,68.53
2022-08-25T01:38:15.463Z,69.37
2022-08-25T01:40:43.227Z,68.82
2022-08-25T01:43:11.716Z,68.97
2022-08-25T01:45:42.743Z,69.09
2022-08-25T01:48:11.851Z,69.24
2022-08-25T01:50:40.546Z,68.90
2022-08-25T01:53:28.832Z,69.02
2022-08-25T01:56:02.697Z,68.67
2022-08-25T01:58:35.752Z,69.44
2022-08-25T02:01:06.935Z,69.24
2022-08-25T02:03:41.184Z,69.82
2022-08-25T02:06:15.152Z,69.67
2022-08-25T02:08:43.569Z,69.65
2022-08-25T02:11:13.746Z,69.63
2022-08-25T02:13:42.417Z,69.97
2022-08-25T02:16:10.970Z,69.91
2022-08-25T02:18:38.627Z,69.90
2022-08-25T02:21:06.448Z,69.71
2022-08-25T02:23:34.153Z,69.85
2022-08-25T02:26:02.109Z,69.67
2022-08-25T02:28:29.931Z,69.86
2022-08-25T02:31:01.670Z,69.98
2022-08-25T02:33:29.679Z,70.10
2022-08-25T02:35:59.139Z,69.99
2022-08-25T02:38:28.027Z,70.02
2022-08-25T02:40:59.990Z,69.72
2022-08-25T02:43:28.470Z,69.88
2022-08-25T02:45:56.558Z,69.74
2022-08-25T02:48:24.456Z,69.69
2022-08-25T02:50:52.816Z,69.80
2022-08-25T02:53:21.600Z,69.84
2022-08-25T02:55:49.253Z,69.80
2022-08-25T02:58:16.906Z,69.89
2022-08-25T03:00:46.267Z,69.75
2022-08-25T03:03:14.383Z,69.70
2022-08-25T03:05:42.261Z,69.55
2022-08-25T03:08:10.986Z,69.69
2022-08-25T03:10:39.025Z,69.71
2022-08-25T03:13:06.805Z,69.75
2022-08-25T03:15:37.786Z,69.66
2022-08-25T03:18:08.704Z,69.57
2022-08-25T03:20:36.683Z,69.37
2022-08-25T03:23:06.102Z,69.44
2022-08-25T03:25:53.037Z,69.55
2022-08-25T03:28:25.001Z,69.62
2022-08-25T03:31:00.271Z,69.59
2022-08-25T03:33:29.471Z,69.45
2022-08-25T03:35:58.091Z,69.66
2022-08-25T03:38:26.893Z,69.78
2022-08-25T03:40:54.812Z,69.90
2022-08-25T03:43:22.488Z,69.83
2022-08-25T03:45:50.340Z,69.77
2022-08-25T03:48:18.603Z,69.52
2022-08-25T03:50:51.807Z,69.36
2022-08-25T03:53:20.592Z,69.77
2022-08-25T03:55:48.624Z,69.92
2022-08-25T03:58:17.084Z,69.75
2022-08-25T04:00:45.080Z,69.84
2022-08-25T04:03:12.802Z,69.87
2022-08-25T04:05:40.865Z,69.87
2022-08-25T04:08:09.179Z,69.87
2022-08-25T04:10:37.252Z,69.73
2022-08-25T04:13:06.544Z,69.90
2022-08-25T04:15:34.690Z,69.56
2022-08-25T04:18:02.471Z,68.95
2022-08-25T04:20:30.356Z,68.96
2022-08-25T04:23:01.304Z,69.40
2022-08-25T04:25:29.060Z,69.41
2022-08-25T04:27:57.654Z,68.83
2022-08-25T04:30:25.342Z,69.06
2022-08-25T04:32:52.978Z,69.41
2022-08-25T04:35:22.332Z,69.26
2022-08-25T04:37:50.277Z,69.45
2022-08-25T04:40:18.401Z,68.65
2022-08-25T04:42:48.239Z,68.22
2022-08-25T04:45:16.114Z,67.92
2022-08-25T04:47:45.047Z,67.86
2022-08-25T04:50:12.806Z,67.68
2022-08-25T04:52:41.057Z,66.98
2022-08-25T04:55:09.124Z,67.20
2022-08-25T04:57:38.075Z,66.38
2022-08-25T05:00:07.297Z,65.69
2022-08-25T05:02:35.980Z,65.31
2022-08-25T05:05:06.558Z,64.99
2022-08-25T05:07:34.533Z,64.99
2022-08-25T05:10:02.171Z,64.62
2022-08-25T05:12:31.060Z,64.28
2022-08-25T05:15:21.006Z,63.96
2022-08-25T05:17:51.590Z,63.70
2022-08-25T05:20:21.820Z,63.47
2022-08-25T05:22:49.562Z,63.50
2022-08-25T05:25:18.808Z,63.23
2022-08-25T05:27:46.582Z,62.80
2022-08-25T05:30:14.375Z,62.91
2022-08-25T05:32:42.313Z,63.09
2022-08-25T05:35:10.128Z,62.63
2022-08-25T05:37:38.058Z,62.49
2022-08-25T05:40:07.380Z,62.06
2022-08-25T05:42:35.854Z,62.70
2022-08-25T05:45:07.521Z,61.99
2022-08-25T05:47:35.402Z,61.70
2022-08-25T05:50:03.674Z,61.66
2022-08-25T05:52:31.522Z,61.16
2022-08-25T05:55:00.918Z,60.54
2022-08-25T05:57:28.643Z,59.76
2022-08-25T05:59:56.847Z,58.63
2022-08-25T06:02:44.679Z,59.66
2022-08-25T06:05:20.182Z,60.27
2022-08-25T06:07:50.451Z,62.81
2022-08-25T06:10:18.402Z,61.79
2022-08-25T06:12:46.837Z,61.85
2022-08-25T06:15:17.125Z,61.70
2022-08-25T06:17:45.467Z,61.38
2022-08-25T06:20:16.561Z,59.83
2022-08-25T06:22:44.707Z,61.12
2022-08-25T06:25:15.663Z,62.82
2022-08-25T06:27:43.557Z,62.57
2022-08-25T06:30:14.972Z,61.77
2022-08-25T06:32:44.981Z,61.39
2022-08-25T06:35:18.163Z,59.95
2022-08-25T06:37:46.818Z,59.85
2022-08-25T06:40:16.294Z,59.69
2022-08-25T06:42:48.750Z,59.82
2022-08-25T06:45:17.374Z,60.61
2022-08-25T06:47:45.617Z,60.88
2022-08-25T06:50:13.497Z,61.06
2022-08-25T06:52:41.150Z,62.93
2022-08-25T06:55:10.398Z,63.26
2022-08-25T06:57:38.190Z,61.97
2022-08-25T07:00:08.508Z,60.02
2022-08-25T07:02:38.355Z,59.47
2022-08-25T07:05:08.265Z,60.38
2022-08-25T07:07:43.674Z,62.27
2022-08-25T07:10:13.192Z,62.31
2022-08-25T07:12:40.827Z,60.35
2022-08-25T07:15:23.987Z,59.43
2022-08-25T07:17:51.798Z,59.21
2022-08-25T07:22:54.288Z,58.25
2022-08-25T07:25:21.942Z,57.83
2022-08-25T07:27:49.838Z,57.33
2022-08-25T07:30:18.892Z,57.66
2022-08-25T07:32:48.139Z,56.60
2022-08-25T07:35:26.298Z,58.88
2022-08-25T07:37:57.133Z,57.87
2022-08-25T07:40:31.865Z,56.88
2022-08-25T07:43:04.048Z,55.20
2022-08-25T07:45:35.183Z,55.41
2022-08-25T07:48:05.876Z,56.59
2022-08-25T07:50:35.775Z,56.76
2022-08-25T07:53:03.450Z,55.48
2022-08-25T07:55:31.971Z,55.05
2022-08-25T07:57:59.860Z,53.98
2022-08-25T08:00:29.999Z,54.23
2022-08-25T08:02:59.860Z,51.47
2022-08-25T08:05:28.074Z,53.15
2022-08-25T08:07:56.761Z,54.40
2022-08-25T08:10:47.815Z,53.12
2022-08-25T08:13:18.023Z,53.41
2022-08-25T08:15:47.932Z,52.75
2022-08-25T08:18:16.492Z,52.74
2022-08-25T08:20:46.649Z,52.13
2022-08-25T08:23:15.795Z,50.20
2022-08-25T08:25:44.299Z,50.71
2022-08-25T08:28:12.351Z,49.80
2022-08-25T08:30:53.467Z,48.40
2022-08-25T08:33:22.838Z,47.72
2022-08-25T08:35:59.066Z,48.90
2022-08-25T08:38:27.820Z,48.76
2022-08-25T08:42:07.153Z,47.65
2022-08-25T08:44:28.265Z,48.74
2022-08-25T08:47:13.600Z,47.80
2022-08-25T08:50:06.254Z,46.45
2022-08-25T08:52:44.947Z,42.64
2022-08-25T08:55:41.710Z,40.66
2022-08-25T08:58:16.036Z,38.38
2022-08-25T09:00:52.602Z,35.18
2022-08-25T09:03:30.180Z,31.88
2022-08-25T09:06:06.913Z,32.38
2022-08-25T09:08:36.904Z,31.87
2022-08-25T09:11:31.897Z,31.81
2022-08-25T09:14:12.868Z,31.23
2022-08-25T09:17:01.696Z,28.87
2022-08-25T09:19:59.411Z,26.26
2022-08-25T09:22:33.677Z,25.37
2022-08-25T09:25:29.529Z,24.94
2022-08-25T09:28:21.083Z,22.50
2022-08-25T09:30:57.501Z,17.50
2022-08-25T09:33:28.965Z,18.30
2022-08-25T09:35:57.749Z,17.85
2022-08-25T09:38:28.971Z,19.14
2022-08-25T09:41:00.784Z,19.52
2022-08-25T09:43:28.759Z,17.47
2022-08-25T09:46:15.374Z,15.68
2022-08-25T09:48:55.921Z,15.33
2022-08-25T09:51:30.170Z,15.16
2022-08-25T09:54:13.030Z,15.87
2022-08-25T09:56:50.069Z,16.34
2022-08-25T09:59:34.156Z,16.51
2022-08-25T10:02:24.066Z,15.51
2022-08-25T10:04:52.783Z,15.81
2022-08-25T10:07:20.446Z,14.99
2022-08-25T10:09:57.704Z,17.05
2022-08-25T10:12:42.476Z,13.93
2022-08-25T10:15:29.905Z,15.05
2022-08-25T10:18:17.608Z,13.97
2022-08-25T10:21:01.631Z,15.23
2022-08-25T10:23:31.511Z,14.50
2022-08-25T10:26:05.084Z,12.82
2022-08-25T10:28:48.179Z,12.33
2022-08-25T10:31:18.825Z,13.53
2022-08-25T10:33:59.800Z,12.75
2022-08-25T10:36:31.993Z,12.39
2022-08-25T10:39:01.913Z,11.79
2022-08-25T10:41:57.855Z,12.64
2022-08-25T10:45:38.844Z,11.73
2022-08-25T10:48:36.071Z,12.40
2022-08-25T10:51:28.478Z,13.01
2022-08-25T10:53:56.268Z,12.75
2022-08-25T10:56:36.913Z,11.61
2022-08-25T10:59:17.096Z,12.73
2022-08-25T11:01:55.349Z,12.71
2022-08-25T11:04:40.142Z,13.35
2022-08-25T11:07:33.772Z,13.65
2022-08-25T11:10:10.344Z,14.25
2022-08-25T11:12:43.590Z,14.50
2022-08-25T11:15:18.166Z,14.20
2022-08-25T11:17:57.151Z,13.99
2022-08-25T11:20:33.417Z,14.51
2022-08-25T11:23:12.081Z,13.65
2022-08-25T11:25:51.349Z,13.76
2022-08-25T11:28:30.628Z,14.16
2022-08-25T11:31:00.188Z,15.18
2022-08-25T11:33:30.606Z,15.86
2022-08-25T11:36:05.548Z,16.71
2022-08-25T11:38:52.907Z,17.13
2022-08-25T11:41:38.847Z,17.64
2022-08-25T11:44:09.212Z,17.46
2022-08-25T11:46:50.233Z,17.81
2022-08-25T11:49:46.462Z,18.62
2022-08-25T11:52:34.989Z,19.45
2022-08-25T11:55:33.655Z,20.23
2022-08-25T11:58:41.435Z,20.84
2022-08-25T12:01:29.852Z,21.45
2022-08-25T12:04:44.244Z,22.64
2022-08-25T12:07:20.195Z,22.53
2022-08-25T12:09:55.453Z,21.80
2022-08-25T12:12:38.784Z,21.65
2022-08-25T12:15:18.817Z,21.52
2022-08-25T12:18:13.427Z,22.02
2022-08-25T12:20:53.565Z,22.82
2022-08-25T12:23:31.604Z,23.28
2022-08-25T12:26:03.977Z,23.49
2022-08-25T12:28:39.179Z,24.05
2022-08-25T12:31:16.739Z,23.94
2022-08-25T12:34:28.995Z,24.37
2022-08-25T12:37:02.702Z,23.99
2022-08-25T12:39:36.290Z,24.09
2022-08-25T12:42:25.345Z,23.93
2022-08-25T12:45:38.607Z,24.76
2022-08-25T12:48:27.713Z,25.60
2022-08-25T12:51:19.997Z,25.60
2022-08-25T12:53:54.724Z,25.51
2022-08-25T12:56:47.671Z,25.94
2022-08-25T12:59:40.518Z,26.51
2022-08-25T13:02:26.533Z,26.44
2022-08-25T13:05:03.738Z,26.59
2022-08-25T13:07:59.446Z,27.05
2022-08-25T13:10:44.787Z,26.96
2022-08-25T13:13:58.629Z,26.92
2022-08-25T13:16:29.814Z,27.39
2022-08-25T13:19:01.682Z,27.22
2022-08-25T13:21:42.362Z,27.20
2022-08-25T13:24:18.226Z,27.14
2022-08-25T13:26:48.837Z,27.78
2022-08-25T13:29:30.415Z,27.63
2022-08-25T13:32:09.342Z,27.74
2022-08-25T13:34:42.790Z,28.38
2022-08-25T13:37:29.637Z,28.08
2022-08-25T13:40:12.388Z,27.95
2022-08-25T13:42:42.415Z,27.86
2022-08-25T13:45:17.954Z,27.85
2022-08-25T13:47:47.308Z,27.99
2022-08-25T13:50:37.064Z,27.85
2022-08-25T13:53:13.953Z,27.95
2022-08-25T13:55:59.397Z,28.11
2022-08-25T13:58:39.321Z,28.34
2022-08-25T14:01:52.224Z,28.67
2022-08-25T14:04:32.380Z,28.01
2022-08-25T14:07:23.354Z,27.94
2022-08-25T14:10:06.753Z,28.44
2022-08-25T14:12:44.787Z,28.49
2022-08-25T14:15:22.030Z,28.69
2022-08-25T14:18:02.363Z,28.44
2022-08-25T14:20:31.961Z,28.05
2022-08-25T14:23:05.392Z,28.16
2022-08-25T14:25:40.512Z,28.06
2022-08-25T14:28:14.015Z,28.07
2022-08-25T14:31:08.808Z,27.60
2022-08-25T14:33:40.703Z,27.40
2022-08-25T14:36:08.842Z,27.78
2022-08-25T14:38:39.016Z,28.20
2022-08-25T14:43:43.772Z,27.65
2022-08-25T14:46:20.633Z,27.01
2022-08-25T14:48:54.398Z,27.05
2022-08-25T14:51:24.184Z,27.07
2022-08-25T14:53:57.281Z,26.90
2022-08-25T14:56:25.317Z,27.08
2022-08-25T14:58:57.398Z,27.03
2022-08-25T15:01:30.030Z,26.95
2022-08-25T15:04:13.370Z,27.10
2022-08-25T15:06:43.853Z,27.62
2022-08-25T15:09:16.326Z,27.80
2022-08-25T15:11:46.570Z,28.07
2022-08-25T15:14:16.173Z,28.24
2022-08-25T15:16:51.321Z,29.09
2022-08-25T15:19:21.634Z,28.24
2022-08-25T15:21:51.509Z,27.91
2022-08-25T15:24:20.963Z,28.14
2022-08-25T15:29:29.653Z,28.36
2022-08-25T15:31:59.706Z,28.53
2022-08-25T15:34:28.879Z,28.74
2022-08-25T15:36:58.440Z,29.15
2022-08-25T15:39:27.854Z,29.30
2022-08-25T15:41:57.171Z,29.38
2022-08-25T15:44:29.460Z,29.42
2022-08-25T15:46:59.012Z,29.49
2022-08-25T15:49:29.615Z,29.60
2022-08-25T15:51:59.312Z,30.32
2022-08-25T15:54:28.368Z,30.12
2022-08-25T15:56:58.827Z,30.45
2022-08-25T15:59:28.598Z,30.22
2022-08-25T16:01:57.006Z,30.69
2022-08-25T16:04:27.421Z,31.21
2022-08-25T16:06:55.592Z,31.35
2022-08-25T16:09:23.931Z,31.01
2022-08-25T16:11:57.622Z,31.65
2022-08-25T16:14:27.671Z,31.45
2022-08-25T16:16:58.337Z,31.86
2022-08-25T16:19:28.672Z,31.84
2022-08-25T16:21:57.849Z,31.98
2022-08-25T16:24:26.291Z,32.04
2022-08-25T16:27:00.158Z,32.35
2022-08-25T16:29:43.785Z,32.59
2022-08-25T16:32:13.843Z,33.12
2022-08-25T16:34:42.329Z,33.19
2022-08-25T16:37:10.817Z,32.97
2022-08-25T16:39:43.964Z,33.06
2022-08-25T16:42:12.132Z,33.45
2022-08-25T16:44:40.764Z,33.65
2022-08-25T16:47:10.594Z,33.95
2022-08-25T16:49:42.566Z,33.70
2022-08-25T16:52:29.912Z,33.83
2022-08-25T16:55:15.342Z,34.14
2022-08-25T16:57:47.693Z,34.18
2022-08-25T17:00:22.473Z,34.66
2022-08-25T17:02:54.740Z,34.56
2022-08-25T17:05:22.501Z,34.72
2022-08-25T17:08:11.074Z,34.66
2022-08-25T17:10:41.041Z,34.62
2022-08-25T17:13:11.027Z,35.07
2022-08-25T17:15:43.571Z,35.30
2022-08-25T17:18:13.799Z,35.26
2022-08-25T17:20:43.805Z,35.33
2022-08-25T17:23:12.945Z,35.04
2022-08-25T17:25:43.002Z,35.90
2022-08-25T17:28:12.544Z,35.74
2022-08-25T17:30:43.737Z,35.97
2022-08-25T17:33:14.184Z,36.38
2022-08-25T17:35:55.222Z,36.77
2022-08-25T17:38:28.451Z,37.16
2022-08-25T17:40:59.720Z,37.56
2022-08-25T17:43:28.571Z,37.70
2022-08-25T17:45:59.562Z,37.60
2022-08-25T17:48:28.460Z,38.31
2022-08-25T17:50:58.309Z,39.00
2022-08-25T17:53:26.608Z,40.23
2022-08-25T17:56:00.977Z,41.98
2022-08-25T17:58:30.251Z,43.97
2022-08-25T18:00:58.837Z,44.57
2022-08-25T18:03:27.197Z,44.42
2022-08-25T18:05:55.871Z,44.60
2022-08-25T18:08:32.245Z,45.20
2022-08-25T18:11:04.710Z,45.45
2022-08-25T18:13:32.697Z,45.37
2022-08-25T18:16:00.451Z,46.79
2022-08-25T18:18:28.627Z,47.96
2022-08-25T18:20:56.602Z,48.52
2022-08-25T18:23:24.943Z,47.99
2022-08-25T18:25:53.248Z,47.55
2022-08-25T18:31:06.960Z,50.71
2022-08-25T18:33:34.148Z,50.19
2022-08-25T18:36:02.468Z,49.52
2022-08-25T18:38:47.481Z,48.03
2022-08-25T18:41:13.791Z,50.51
2022-08-25T18:43:40.675Z,52.42
2022-08-25T18:46:08.192Z,53.19
2022-08-25T18:48:34.834Z,54.08
2022-08-25T18:51:02.074Z,54.50
2022-08-25T18:53:49.796Z,55.16
2022-08-25T18:56:17.447Z,54.83
2022-08-25T18:58:44.827Z,56.41
2022-08-25T19:01:15.811Z,56.87
2022-08-25T19:03:43.605Z,57.00
2022-08-25T19:06:10.378Z,56.64
2022-08-25T19:08:39.472Z,55.44
2022-08-25T19:11:09.013Z,55.38
2022-08-25T19:13:35.490Z,55.66
2022-08-25T19:16:10.144Z,55.37
2022-08-25T19:18:38.445Z,55.14
2022-08-25T19:21:05.347Z,56.48
2022-08-25T19:23:38.141Z,56.58
2022-08-25T19:26:08.681Z,57.26
2022-08-25T19:28:45.864Z,57.20
2022-08-25T19:31:16.616Z,57.56
2022-08-25T19:33:46.720Z,56.65
2022-08-25T19:36:14.004Z,56.88
2022-08-25T19:38:40.917Z,57.27
2022-08-25T19:41:14.099Z,57.12
2022-08-25T19:43:56.197Z,57.51
2022-08-25T19:46:33.223Z,56.61
2022-08-25T19:49:36.875Z,56.66
2022-08-25T19:52:06.559Z,57.58
2022-08-25T19:54:44.224Z,60.65
2022-08-25T19:57:12.668Z,61.62
2022-08-25T19:59:43.155Z,61.47
2022-08-25T20:02:20.209Z,61.10
2022-08-25T20:04:51.492Z,60.32
2022-08-25T20:07:20.496Z,58.67
2022-08-25T20:09:47.537Z,56.83
2022-08-25T20:14:41.524Z,56.90
2022-08-25T20:17:14.508Z,56.81
2022-08-25T20:19:57.134Z,56.89
2022-08-25T20:22:26.961Z,59.25
2022-08-25T20:25:07.342Z,58.55
2022-08-25T20:27:52.869Z,57.86
2022-08-25T20:30:27.805Z,57.72
2022-08-25T20:32:55.787Z,58.97
2022-08-25T20:35:26.751Z,59.45
2022-08-25T20:37:54.924Z,58.90
2022-08-25T20:40:25.571Z,58.49
2022-08-25T20:42:53.549Z,60.63
2022-08-25T20:45:21.201Z,62.14
2022-08-25T20:47:48.388Z,63.14
2022-08-25T20:50:15.440Z,63.46
2022-08-25T20:52:42.590Z,63.16
2022-08-25T20:55:11.122Z,62.64
2022-08-25T20:57:38.816Z,62.42
2022-08-25T21:00:07.164Z,61.29
2022-08-25T21:02:34.364Z,60.53
2022-08-25T21:05:01.218Z,59.94
2022-08-25T21:07:28.266Z,58.50
2022-08-25T21:09:54.609Z,57.82
2022-08-25T21:12:21.405Z,58.02
2022-08-25T21:14:48.363Z,59.48
2022-08-25T21:17:16.296Z,61.25
2022-08-25T21:19:49.909Z,62.47
2022-08-25T21:22:16.541Z,62.52
2022-08-25T21:24:43.616Z,62.02
2022-08-25T21:27:10.981Z,62.28
2022-08-25T21:29:37.689Z,62.58
2022-08-25T21:32:04.163Z,61.79
2022-08-25T21:34:30.523Z,61.23
2022-08-25T21:36:59.256Z,60.99
2022-08-25T21:39:28.843Z,60.91
2022-08-25T21:41:56.137Z,61.30
2022-08-25T21:44:23.394Z,61.17
2022-08-25T21:46:53.810Z,62.06
2022-08-25T21:49:23.108Z,61.96
2022-08-25T21:51:59.249Z,61.32
2022-08-25T21:54:26.528Z,61.30
2022-08-25T21:56:59.667Z,61.38
2022-08-25T21:59:30.061Z,61.04
2022-08-25T22:02:02.269Z,61.34
2022-08-25T22:04:29.420Z,61.18
2022-08-25T22:06:57.175Z,61.56
2022-08-25T22:09:25.040Z,60.58
2022-08-25T22:11:52.649Z,59.79
2022-08-25T22:14:22.717Z,58.71
2022-08-25T22:16:51.169Z,60.25
2022-08-25T22:19:17.668Z,61.96
2022-08-25T22:21:44.769Z,62.99
2022-08-25T22:24:12.121Z,62.89
2022-08-25T22:26:39.080Z,62.82
2022-08-25T22:29:07.073Z,62.93
2022-08-25T22:31:34.687Z,62.83
2022-08-25T22:34:02.759Z,62.68
2022-08-25T22:36:32.321Z,62.55
2022-08-25T22:38:58.539Z,62.52
2022-08-25T22:41:26.723Z,62.41
2022-08-25T22:43:56.082Z,62.65
2022-08-25T22:46:24.100Z,62.61
2022-08-25T22:48:51.631Z,62.83
2022-08-25T22:51:21.523Z,63.14
2022-08-25T22:53:49.096Z,62.52
2022-08-25T22:56:18.327Z,62.40
2022-08-25T22:58:52.400Z,62.16
2022-08-25T23:01:20.028Z,61.52
2022-08-25T23:03:48.504Z,62.29
2022-08-25T23:06:20.806Z,62.27
2022-08-25T23:08:54.770Z,62.46
2022-08-25T23:11:22.576Z,62.50
2022-08-25T23:13:49.444Z,62.86
2022-08-25T23:16:16.510Z,63.25
2022-08-25T23:18:46.233Z,63.58
2022-08-25T23:21:38.221Z,63.17
2022-08-25T23:24:10.689Z,63.09
2022-08-25T23:26:37.858Z,63.38
2022-08-25T23:29:18.684Z,62.84
2022-08-25T23:31:46.744Z,62.59
2022-08-25T23:34:15.222Z,62.49
2022-08-25T23:36:42.018Z,63.08
2022-08-25T23:39:08.638Z,63.26
2022-08-25T23:41:35.958Z,63.07
2022-08-25T23:44:04.756Z,62.95
2022-08-25T23:46:31.613Z,62.84
2022-08-25T23:48:57.991Z,62.92
2022-08-25T23:51:29.420Z,62.74
2022-08-25T23:53:56.656Z,62.96
2022-08-25T23:56:25.879Z,63.03
2022-08-25T23:58:52.604Z,63.03
